American Lake, Washington
Current Conditions -  °F | °C
As of 8:06 AM on Sunday 23 Nov 2014 (Local Time) from KGRF Reporting Station
Moderate Rain Moderate Rain  
Wind Chill: 42°   Ceiling: 3700
Heat Index: 48°   Visibility: 4mi
Dew Point: 46°   Wind: 15mph
Humidity: 93%   Direction: 260°W
Pressure: 30.12"   Gusts: 21mph
Location:  47.1451°N, 122.578°W
Report Text: KGRF 231606Z AUTO 26013G18KT 4SM RA BR FEW003 OVC037 09/08 A3012 RMK AO2
Loading
Personal Weather Stations






























Interactive Weather Map New forecast layout! Learn more

10-Day Weather Forecast

Advertisements
Track Severe Weather on mobile